Time;durP1;ratioP1;P1;durP2;ratioP2;P2;SDS_P1;SDS_P2;PMS_P1;PMS_P2;Temp;Humidity;BMP_temperature;BMP_pressure;BME280_temperature;BME280_humidity;BME280_pressure;Samples;Min_cycle;Max_cycle;Signal;HPM_P1;HPM_P2
2024/01/22 00:01:11;;;;;;;8.20;3.13;;;6.90;99.90;;;;;;6173070;23;20076;-88
2024/01/22 00:03:38;;;;;;;9.70;3.35;;;6.70;99.90;;;;;;6148619;23;20018;-87
2024/01/22 00:06:05;;;;;;;11.43;3.58;;;6.50;99.90;;;;;;6172753;23;20021;-88
2024/01/22 00:08:31;;;;;;;9.57;3.40;;;6.20;99.90;;;;;;6148620;23;20016;-87
2024/01/22 00:10:58;;;;;;;8.63;3.47;;;7.20;99.90;;;;;;6173065;23;20010;-88
2024/01/22 00:13:24;;;;;;;9.52;3.72;;;6.40;99.90;;;;;;6148136;23;20024;-86
2024/01/22 00:15:51;;;;;;;8.30;3.08;;;6.30;99.90;;;;;;6147961;23;20063;-87
2024/01/22 00:18:18;;;;;;;7.45;2.90;;;6.30;99.90;;;;;;6148009;23;20049;-87
2024/01/22 00:20:45;;;;;;;7.47;3.25;;;6.40;99.90;;;;;;6147781;23;20044;-86
2024/01/22 00:23:11;;;;;;;8.30;3.38;;;6.40;99.90;;;;;;6148081;23;20484;-86
2024/01/22 00:25:38;;;;;;;6.43;3.10;;;6.30;99.90;;;;;;6172558;23;20024;-88
2024/01/22 00:28:05;;;;;;;8.25;3.65;;;6.80;99.90;;;;;;6148120;23;20445;-87
2024/01/22 00:30:31;;;;;;;9.27;3.28;;;6.40;99.90;;;;;;6148066;23;20006;-87
2024/01/22 00:32:59;;;;;;;9.50;3.20;;;7.10;99.90;;;;;;6148050;23;20012;-87
2024/01/22 00:35:25;;;;;;;10.43;3.58;;;6.40;99.90;;;;;;6147923;23;20017;-87
2024/01/22 00:37:52;;;;;;;8.27;3.40;;;6.40;99.90;;;;;;6148184;23;20017;-87
2024/01/22 00:40:18;;;;;;;11.43;3.45;;;7.60;99.90;;;;;;6149848;23;20025;-87
2024/01/22 00:42:45;;;;;;;5.80;3.05;;;6.40;99.90;;;;;;6150010;23;20022;-88
2024/01/22 00:45:12;;;;;;;7.10;3.28;;;6.80;99.90;;;;;;6149585;23;20096;-87
2024/01/22 00:47:38;;;;;;;7.35;3.40;;;7.20;99.90;;;;;;6173608;23;20045;-86
2024/01/22 00:50:05;;;;;;;8.02;3.28;;;6.50;99.90;;;;;;6173992;23;20006;-87
2024/01/22 00:52:32;;;;;;;6.65;2.90;;;6.50;99.90;;;;;;6149488;23;20507;-87
2024/01/22 00:54:58;;;;;;;5.72;2.92;;;6.80;99.90;;;;;;6149987;23;20006;-87
2024/01/22 00:57:25;;;;;;;6.25;2.97;;;6.60;99.90;;;;;;6150014;23;20009;-87
2024/01/22 00:59:52;;;;;;;11.73;3.60;;;6.60;99.90;;;;;;6149718;23;20017;-86
2024/01/22 01:02:18;;;;;;;8.00;3.40;;;6.60;99.90;;;;;;6150571;23;20016;-87
2024/01/22 01:04:45;;;;;;;6.13;3.28;;;6.60;99.90;;;;;;6149569;23;20032;-87
2024/01/22 01:07:14;;;;;;;6.65;3.28;;;7.60;99.90;;;;;;6149793;23;20352;-86
2024/01/22 01:09:41;;;;;;;9.32;3.28;;;7.60;99.90;;;;;;6149597;23;20021;-86
2024/01/22 01:12:08;;;;;;;9.13;3.10;;;7.60;99.90;;;;;;6149664;23;20013;-87
2024/01/22 01:14:34;;;;;;;7.47;3.15;;;8.00;99.90;;;;;;6149698;23;20083;-87
2024/01/22 01:17:01;;;;;;;9.32;3.13;;;7.60;99.90;;;;;;6149980;23;20085;-86
2024/01/22 01:19:27;;;;;;;7.18;2.80;;;6.80;99.90;;;;;;6149769;23;20096;-87
2024/01/22 01:21:54;;;;;;;8.50;3.63;;;6.80;99.90;;;;;;6149696;23;20013;-87
2024/01/22 01:24:21;;;;;;;8.48;3.33;;;6.90;99.90;;;;;;6174410;23;20014;-87
2024/01/22 01:26:48;;;;;;;7.95;3.28;;;6.80;99.90;;;;;;6149480;23;20013;-87
2024/01/22 01:29:14;;;;;;;8.10;3.00;;;6.80;99.90;;;;;;6149596;23;20016;-87
2024/01/22 01:31:41;;;;;;;8.48;3.33;;;6.80;99.90;;;;;;6149610;23;20436;-86
2024/01/22 01:34:08;;;;;;;9.18;3.15;;;7.40;99.90;;;;;;6149719;23;20072;-87
2024/01/22 01:36:34;;;;;;;6.45;2.92;;;7.60;99.90;;;;;;6149653;23;20013;-86
2024/01/22 01:39:01;;;;;;;7.40;2.95;;;6.80;99.90;;;;;;6149328;23;20014;-87
2024/01/22 01:41:28;;;;;;;7.07;3.13;;;6.80;99.90;;;;;;6148819;23;20030;-87
2024/01/22 01:43:54;;;;;;;10.13;3.25;;;7.00;99.90;;;;;;6149829;23;20024;-87
2024/01/22 01:46:21;;;;;;;6.78;3.00;;;7.80;99.90;;;;;;6149306;23;20036;-86
2024/01/22 01:48:49;;;;;;;8.00;3.10;;;7.40;99.90;;;;;;6148958;23;20006;-87
2024/01/22 01:51:16;;;;;;;6.93;2.85;;;6.80;99.90;;;;;;6149108;23;20006;-86
2024/01/22 01:53:45;;;;;;;6.10;2.97;;;7.00;99.90;;;;;;6148917;23;20036;-87
2024/01/22 01:56:12;;;;;;;8.18;3.00;;;7.00;99.90;;;;;;6173749;23;20018;-86
2024/01/22 01:58:39;;;;;;;9.80;3.15;;;7.00;99.90;;;;;;6149002;23;20095;-86
2024/01/22 02:01:06;;;;;;;7.47;3.00;;;7.00;99.90;;;;;;6149258;23;20013;-86
2024/01/22 02:03:33;;;;;;;7.60;3.15;;;7.00;99.90;;;;;;6148695;23;20092;-87
2024/01/22 02:06:01;;;;;;;6.82;3.10;;;7.00;99.90;;;;;;6148857;23;20056;-86
2024/01/22 02:08:27;;;;;;;8.70;3.22;;;7.10;99.90;;;;;;6148942;23;20020;-86
2024/01/22 02:10:54;;;;;;;9.68;3.28;;;7.40;99.90;;;;;;6173512;23;20010;-87
2024/01/22 02:13:21;;;;;;;9.50;3.10;;;7.30;99.90;;;;;;6149632;23;20017;-87
2024/01/22 02:15:47;;;;;;;8.90;3.30;;;7.80;99.90;;;;;;6173594;23;20024;-87
2024/01/22 02:18:14;;;;;;;6.53;3.15;;;8.10;99.90;;;;;;6173414;23;20028;-87
2024/01/22 02:20:40;;;;;;;8.02;3.10;;;7.90;99.90;;;;;;6148988;23;20014;-87
2024/01/22 02:23:07;;;;;;;7.28;3.10;;;7.20;99.90;;;;;;6149154;23;20029;-87
2024/01/22 02:25:34;;;;;;;7.00;3.35;;;8.10;99.90;;;;;;6173241;23;20014;-86
2024/01/22 02:28:00;;;;;;;6.28;2.95;;;7.20;99.90;;;;;;6173357;23;20012;-87
2024/01/22 02:30:27;;;;;;;8.68;3.35;;;7.20;99.90;;;;;;6149163;23;20519;-87
2024/01/22 02:32:54;;;;;;;6.45;3.55;;;7.40;99.90;;;;;;6149044;23;20080;-87
2024/01/22 02:35:21;;;;;;;6.60;3.33;;;7.50;99.90;;;;;;6149065;23;20087;-87
2024/01/22 02:37:48;;;;;;;9.18;3.00;;;7.30;99.90;;;;;;6148747;23;20467;-87
2024/01/22 02:40:15;;;;;;;7.57;3.28;;;8.00;99.90;;;;;;6149132;23;20013;-87
2024/01/22 02:42:41;;;;;;;9.13;3.90;;;7.60;99.90;;;;;;6149114;23;20450;-86
2024/01/22 02:45:08;;;;;;;10.15;3.28;;;7.90;99.90;;;;;;6173490;23;20014;-87
2024/01/22 02:47:35;;;;;;;7.10;3.13;;;7.30;99.90;;;;;;6148408;23;20100;-87
2024/01/22 02:50:02;;;;;;;5.43;3.22;;;7.80;99.90;;;;;;6148435;23;20044;-87
2024/01/22 02:52:28;;;;;;;6.22;3.22;;;7.40;99.90;;;;;;6148298;23;20072;-87
2024/01/22 02:54:55;;;;;;;5.82;3.00;;;7.40;99.90;;;;;;6148491;23;20349;-87
2024/01/22 02:57:21;;;;;;;8.75;2.97;;;7.50;99.90;;;;;;6148308;23;20017;-87
2024/01/22 02:59:48;;;;;;;7.35;3.03;;;7.40;99.90;;;;;;6148515;23;20088;-87
2024/01/22 03:02:16;;;;;;;5.90;2.90;;;8.10;99.90;;;;;;6148194;23;20096;-86
2024/01/22 03:04:43;;;;;;;8.15;3.05;;;7.50;99.90;;;;;;6148409;23;20452;-86
2024/01/22 03:07:10;;;;;;;5.40;3.05;;;7.60;99.90;;;;;;6147956;23;20348;-86
2024/01/22 03:09:37;;;;;;;9.57;3.22;;;8.00;99.90;;;;;;6148396;23;20009;-86
2024/01/22 03:12:03;;;;;;;6.53;3.10;;;8.20;99.90;;;;;;6148001;23;20108;-86
2024/01/22 03:14:30;;;;;;;5.80;2.63;;;7.60;99.90;;;;;;6147898;23;20445;-86
2024/01/22 03:16:57;;;;;;;7.68;2.80;;;7.90;99.90;;;;;;6172634;23;20419;-86
2024/01/22 03:19:23;;;;;;;8.48;2.92;;;7.60;99.90;;;;;;6172501;23;20103;-86
2024/01/22 03:21:50;;;;;;;6.20;2.85;;;7.70;99.90;;;;;;6148348;23;20058;-87
2024/01/22 03:24:16;;;;;;;5.97;2.90;;;7.70;99.90;;;;;;6147831;23;20029;-85
2024/01/22 03:26:43;;;;;;;5.13;2.63;;;7.70;99.90;;;;;;6147848;23;20013;-86
2024/01/22 03:29:10;;;;;;;9.57;3.10;;;8.00;99.90;;;;;;6148228;23;20310;-86
2024/01/22 03:31:37;;;;;;;8.48;2.75;;;7.80;99.90;;;;;;6148629;23;20013;-85
2024/01/22 03:34:04;;;;;;;9.13;2.92;;;8.50;99.90;;;;;;6148165;23;20009;-85
2024/01/22 03:36:31;;;;;;;5.47;3.10;;;8.60;99.90;;;;;;6148187;23;20097;-85
2024/01/22 03:38:57;;;;;;;7.13;3.00;;;8.40;99.90;;;;;;6148066;23;20337;-86
2024/01/22 03:41:24;;;;;;;7.15;2.95;;;7.80;99.90;;;;;;6148334;23;20017;-86
2024/01/22 03:43:50;;;;;;;6.18;2.92;;;7.80;99.90;;;;;;6148059;23;20072;-86
2024/01/22 03:46:18;;;;;;;5.60;2.53;;;8.00;99.90;;;;;;6148142;23;20523;-86
2024/01/22 03:48:45;;;;;;;5.15;2.53;;;8.20;99.90;;;;;;6148304;23;20441;-85
2024/01/22 03:51:11;;;;;;;5.35;2.78;;;7.80;99.90;;;;;;6148197;23;20081;-85
2024/01/22 03:53:38;;;;;;;5.70;2.67;;;8.40;99.90;;;;;;6148230;23;20013;-85
2024/01/22 03:56:05;;;;;;;7.00;2.90;;;7.80;99.90;;;;;;6148219;23;20322;-86
2024/01/22 03:58:33;;;;;;;7.85;3.42;;;7.80;99.90;;;;;;6148324;23;20017;-86
2024/01/22 04:01:01;;;;;;;7.63;2.95;;;7.80;99.90;;;;;;6148321;23;20017;-86
2024/01/22 04:03:27;;;;;;;7.45;3.10;;;7.80;99.90;;;;;;6148562;23;20021;-85
2024/01/22 04:05:54;;;;;;;9.50;2.75;;;8.30;99.90;;;;;;6147798;23;20854;-85
2024/01/22 04:08:20;;;;;;;6.00;2.42;;;7.70;99.90;;;;;;6148029;23;20092;-86
2024/01/22 04:10:47;;;;;;;5.05;2.30;;;7.80;99.90;;;;;;6148154;23;20016;-86
2024/01/22 04:13:14;;;;;;;6.53;2.75;;;7.80;99.90;;;;;;6148013;23;20532;-86
2024/01/22 04:15:41;;;;;;;5.88;2.78;;;8.30;99.90;;;;;;6150040;23;20017;-85
2024/01/22 04:18:07;;;;;;;6.32;2.55;;;7.80;99.90;;;;;;6150031;23;20092;-85
2024/01/22 04:20:34;;;;;;;5.50;2.65;;;7.90;99.90;;;;;;6150121;23;20045;-85
2024/01/22 04:23:01;;;;;;;5.75;2.30;;;7.90;99.90;;;;;;6149655;23;20448;-85
2024/01/22 04:25:27;;;;;;;7.03;2.50;;;7.90;99.90;;;;;;6149723;23;20466;-85
2024/01/22 04:27:56;;;;;;;5.22;2.78;;;7.90;99.90;;;;;;6149598;23;20013;-86
2024/01/22 04:30:22;;;;;;;6.60;2.25;;;7.90;99.90;;;;;;6149728;23;20353;-86
2024/01/22 04:32:49;;;;;;;6.68;2.92;;;8.70;99.90;;;;;;6149986;23;20014;-86
2024/01/22 04:35:15;;;;;;;6.60;2.60;;;8.00;99.90;;;;;;6149727;23;20009;-85
2024/01/22 04:37:42;;;;;;;6.20;2.55;;;8.30;99.90;;;;;;6174067;23;20013;-86
2024/01/22 04:40:13;;;;;;;4.90;2.10;;;8.30;99.90;;;;;;6149781;23;20018;-85
2024/01/22 04:42:44;;;;;;;4.80;2.25;;;8.10;99.90;;;;;;6149667;23;20009;-86
2024/01/22 04:45:10;;;;;;;4.93;2.47;;;8.10;99.90;;;;;;6149697;23;20010;-86
2024/01/22 04:47:37;;;;;;;6.60;2.33;;;8.70;99.90;;;;;;6149809;23;20092;-85
2024/01/22 04:50:04;;;;;;;5.47;2.50;;;8.80;99.90;;;;;;6149774;23;20068;-85
2024/01/22 04:52:31;;;;;;;5.50;2.03;;;8.20;99.90;;;;;;6149649;23;20009;-86
2024/01/22 04:54:58;;;;;;;5.60;2.00;;;8.20;99.90;;;;;;6149704;23;20482;-85
2024/01/22 04:57:24;;;;;;;4.53;2.25;;;8.30;99.90;;;;;;6149640;23;20028;-85
2024/01/22 04:59:51;;;;;;;5.03;2.05;;;8.80;99.90;;;;;;6149609;23;20014;-85
2024/01/22 05:02:22;;;;;;;6.15;2.33;;;8.30;99.90;;;;;;6149549;23;20018;-86
2024/01/22 05:04:49;;;;;;;3.53;1.88;;;8.30;99.90;;;;;;6149150;23;20032;-85
2024/01/22 05:07:16;;;;;;;4.18;1.80;;;8.30;99.90;;;;;;6173420;23;20010;-85
2024/01/22 05:09:42;;;;;;;4.30;2.30;;;8.40;99.90;;;;;;6173933;23;20452;-85
2024/01/22 05:12:09;;;;;;;3.05;1.67;;;8.90;99.90;;;;;;6149396;23;20100;-85
2024/01/22 05:14:40;;;;;;;4.88;2.17;;;8.40;99.90;;;;;;6149213;23;20016;-85
2024/01/22 05:17:10;;;;;;;3.50;2.00;;;8.40;99.90;;;;;;6149352;23;20018;-85
2024/01/22 05:19:37;;;;;;;4.88;1.80;;;8.50;99.90;;;;;;6149234;23;20013;-85
2024/01/22 05:22:03;;;;;;;4.32;1.88;;;8.50;99.90;;;;;;6149436;23;20020;-85
2024/01/22 05:24:30;;;;;;;3.78;2.20;;;9.20;99.90;;;;;;6149032;23;20010;-85
2024/01/22 05:26:57;;;;;;;3.60;1.88;;;8.60;99.90;;;;;;6173350;23;20017;-85
2024/01/22 05:29:23;;;;;;;3.65;1.95;;;9.20;99.90;;;;;;6151289;23;20024;-84
2024/01/22 05:31:50;;;;;;;3.92;1.90;;;9.00;99.90;;;;;;6152497;23;20057;-86
2024/01/22 05:34:16;;;;;;;3.22;1.67;;;8.60;99.90;;;;;;6149193;23;20013;-86
2024/01/22 05:36:43;;;;;;;3.58;1.80;;;8.60;99.90;;;;;;6149223;23;20052;-86
2024/01/22 05:39:10;;;;;;;8.10;1.92;;;8.70;99.90;;;;;;6149058;23;20017;-86
2024/01/22 05:41:36;;;;;;;3.22;1.88;;;8.90;99.90;;;;;;6149239;23;20353;-86
2024/01/22 05:44:03;;;;;;;3.97;1.95;;;8.60;99.90;;;;;;6149291;23;20020;-86
2024/01/22 05:46:30;;;;;;;4.72;2.00;;;8.70;99.90;;;;;;6149147;23;20010;-86
2024/01/22 05:48:56;;;;;;;3.85;1.80;;;8.80;99.90;;;;;;6148846;23;20049;-86
2024/01/22 05:51:23;;;;;;;4.22;2.03;;;9.10;99.90;;;;;;6149026;23;20104;-86
2024/01/22 05:53:50;;;;;;;3.53;1.83;;;8.80;99.90;;;;;;6149233;23;20006;-86
2024/01/22 05:56:28;;;;;;;2.80;1.70;;;8.90;99.90;;;;;;6149278;23;20018;-87
2024/01/22 05:58:56;;;;;;;3.50;1.80;;;9.00;99.90;;;;;;6149081;23;20025;-85
2024/01/22 06:01:25;;;;;;;4.82;1.77;;;9.10;99.90;;;;;;6149100;23;20511;-86
2024/01/22 06:03:51;;;;;;;5.15;1.90;;;9.10;99.90;;;;;;6148886;23;20173;-86
2024/01/22 06:06:19;;;;;;;3.55;1.52;;;9.10;99.90;;;;;;6148914;23;20005;-86
2024/01/22 06:08:48;;;;;;;3.63;1.90;;;9.10;99.90;;;;;;6148792;23;20014;-86
2024/01/22 06:11:18;;;;;;;4.18;1.92;;;9.10;99.90;;;;;;6148814;23;20009;-86
2024/01/22 06:13:45;;;;;;;3.78;1.77;;;9.10;99.90;;;;;;6148423;23;20495;-86
2024/01/22 06:16:12;;;;;;;4.00;1.70;;;9.20;99.90;;;;;;6148861;23;20108;-86
2024/01/22 06:18:41;;;;;;;4.82;2.00;;;9.10;99.90;;;;;;6149049;23;20731;-86
2024/01/22 06:21:08;;;;;;;4.43;1.52;;;9.10;99.90;;;;;;6148956;23;20013;-86
2024/01/22 06:23:35;;;;;;;5.72;1.80;;;9.30;99.90;;;;;;6148999;23;20345;-86
2024/01/22 06:26:02;;;;;;;3.17;1.77;;;9.60;99.90;;;;;;6148689;23;20067;-86
2024/01/22 06:28:30;;;;;;;4.30;1.52;;;9.30;99.90;;;;;;6148894;23;20068;-86
2024/01/22 06:30:57;;;;;;;4.32;1.60;;;10.10;99.90;;;;;;6148964;23;20014;-86
2024/01/22 06:33:24;;;;;;;4.32;1.70;;;9.80;99.90;;;;;;6173046;23;20009;-86
2024/01/22 06:35:51;;;;;;;3.67;1.80;;;10.20;99.90;;;;;;6148407;23;20064;-86
2024/01/22 06:38:17;;;;;;;3.00;1.40;;;9.70;99.90;;;;;;6149044;23;20068;-87
2024/01/22 06:40:45;;;;;;;3.00;1.33;;;9.60;99.90;;;;;;6148818;23;20009;-86
2024/01/22 06:43:13;;;;;;;7.22;1.48;;;9.70;99.90;;;;;;6148920;23;20018;-87
2024/01/22 06:45:39;;;;;;;5.35;1.15;;;9.80;99.90;;;;;;6148752;23;20009;-87
2024/01/22 06:48:06;;;;;;;6.53;1.33;;;9.70;99.90;;;;;;6173430;23;20348;-87
2024/01/22 06:50:33;;;;;;;4.03;1.30;;;9.80;99.90;;;;;;6149160;23;20014;-87
2024/01/22 06:52:59;;;;;;;2.60;1.00;;;9.80;99.90;;;;;;6148982;23;20332;-87
2024/01/22 06:55:26;;;;;;;4.95;1.10;;;9.90;99.90;;;;;;6148786;23;20010;-87
2024/01/22 06:57:53;;;;;;;7.20;1.17;;;10.00;99.90;;;;;;6173069;23;20021;-87
2024/01/22 07:00:19;;;;;;;4.22;1.05;;;10.00;99.90;;;;;;6148418;23;20014;-87
2024/01/22 07:02:48;;;;;;;5.47;1.85;;;10.00;99.90;;;;;;6172609;23;20105;-86
2024/01/22 07:05:16;;;;;;;4.68;1.10;;;10.40;99.90;;;;;;6173052;23;20014;-87
2024/01/22 07:07:42;;;;;;;5.28;1.05;;;10.10;99.90;;;;;;6148893;23;20153;-88
2024/01/22 07:10:10;;;;;;;3.60;1.00;;;10.50;99.90;;;;;;6148726;23;20431;-87
2024/01/22 07:12:41;;;;;;;2.22;0.90;;;10.10;99.90;;;;;;6148668;23;20013;-87
2024/01/22 07:15:12;;;;;;;2.38;1.00;;;10.10;99.90;;;;;;6148328;23;20013;-87
2024/01/22 07:17:42;;;;;;;4.43;1.17;;;10.10;99.90;;;;;;6148692;23;20026;-87
2024/01/22 07:20:13;;;;;;;4.68;1.60;;;10.10;99.90;;;;;;6148382;23;20020;-87
2024/01/22 07:22:41;;;;;;;6.85;1.50;;;10.10;99.90;;;;;;6148249;23;20013;-87
2024/01/22 07:25:10;;;;;;;5.20;1.20;;;10.10;99.90;;;;;;6148101;23;20028;-87
2024/01/22 07:27:38;;;;;;;9.43;1.60;;;10.10;99.90;;;;;;6147457;23;20460;-87
2024/01/22 07:30:08;;;;;;;10.80;1.58;;;10.60;99.90;;;;;;6147981;23;20009;-87
2024/01/22 07:32:36;;;;;;;9.13;1.92;;;10.10;99.90;;;;;;6147996;23;20080;-87
2024/01/22 07:35:07;;;;;;;7.93;1.77;;;10.10;99.90;;;;;;6172410;23;20393;-87
2024/01/22 07:37:35;;;;;;;12.25;2.35;;;10.30;99.90;;;;;;6147688;23;20060;-86
2024/01/22 07:40:04;;;;;;;11.98;2.15;;;10.10;99.90;;;;;;6147740;23;20080;-86
2024/01/22 07:42:34;;;;;;;15.52;2.75;;;10.00;99.90;;;;;;6147502;23;20015;-86
2024/01/22 07:45:01;;;;;;;8.95;2.15;;;10.00;99.90;;;;;;6147551;23;20017;-87
2024/01/22 07:47:28;;;;;;;9.05;1.92;;;10.00;99.90;;;;;;6147298;23;20063;-88
2024/01/22 07:49:55;;;;;;;13.05;3.00;;;10.00;99.90;;;;;;6148124;23;20435;-88
2024/01/22 07:52:22;;;;;;;13.45;4.70;;;10.20;99.90;;;;;;6147667;23;20045;-88
2024/01/22 07:54:48;;;;;;;26.73;6.75;;;10.20;99.90;;;;;;6147652;23;20073;-87
2024/01/22 07:57:15;;;;;;;19.70;6.50;;;10.40;99.90;;;;;;6147375;23;20352;-87
2024/01/22 07:59:42;;;;;;;9.95;2.95;;;10.00;99.90;;;;;;6147678;23;20031;-89
2024/01/22 08:02:09;;;;;;;17.60;3.60;;;9.90;99.90;;;;;;6172021;23;20013;-88
2024/01/22 08:04:37;;;;;;;10.60;2.80;;;9.90;99.90;;;;;;6147812;23;20084;-88
2024/01/22 08:07:06;;;;;;;14.65;3.60;;;9.90;99.90;;;;;;6148528;23;20092;-89
2024/01/22 08:09:33;;;;;;;12.20;3.88;;;9.90;99.90;;;;;;6148387;23;20100;-88
2024/01/22 08:12:00;;;;;;;10.27;3.42;;;9.90;99.90;;;;;;6147856;23;20005;-88
2024/01/22 08:14:27;;;;;;;17.60;2.95;;;9.90;99.90;;;;;;6147661;23;20140;-88
2024/01/22 08:16:54;;;;;;;12.52;3.55;;;9.90;99.90;;;;;;6148159;23;20023;-88
2024/01/22 08:19:20;;;;;;;10.27;3.17;;;9.90;99.90;;;;;;6148415;23;20014;-89
2024/01/22 08:21:47;;;;;;;11.75;2.50;;;10.30;99.90;;;;;;6148617;23;20452;-88
2024/01/22 08:24:14;;;;;;;17.30;3.03;;;9.90;99.90;;;;;;6148642;23;20060;-89
2024/01/22 08:26:40;;;;;;;14.05;2.67;;;9.90;99.90;;;;;;6148026;23;20521;-88
2024/01/22 08:29:07;;;;;;;12.77;3.28;;;9.90;99.90;;;;;;6148140;23;20049;-88
2024/01/22 08:31:34;;;;;;;15.85;2.80;;;9.80;99.90;;;;;;6148453;23;20306;-89
2024/01/22 08:34:02;;;;;;;17.02;2.97;;;9.80;99.90;;;;;;6148299;23;20005;-88
2024/01/22 08:36:29;;;;;;;19.45;3.10;;;9.80;99.90;;;;;;6172539;23;20019;-89
2024/01/22 08:38:56;;;;;;;12.93;2.63;;;9.90;99.90;;;;;;6147176;23;20009;-89
2024/01/22 08:41:26;;;;;;;14.23;2.92;;;10.10;99.90;;;;;;6172962;23;20479;-89
2024/01/22 08:43:59;;;;;;;14.52;3.40;;;9.80;99.90;;;;;;6148316;23;20021;-88
2024/01/22 08:46:26;;;;;;;17.33;3.00;;;10.00;99.90;;;;;;6148148;23;20005;-88
2024/01/22 08:48:53;;;;;;;20.52;3.38;;;9.80;99.90;;;;;;6148392;23;20010;-88
2024/01/22 08:51:20;;;;;;;16.27;3.22;;;10.10;99.90;;;;;;6148373;23;20045;-88
2024/01/22 08:53:46;;;;;;;26.65;3.38;;;9.90;99.90;;;;;;6148833;23;20014;-90
2024/01/22 08:56:13;;;;;;;18.58;3.50;;;9.80;99.90;;;;;;6149462;23;20014;-89
2024/01/22 08:58:40;;;;;;;12.93;2.75;;;9.80;99.90;;;;;;6148530;23;20020;-88
2024/01/22 09:01:07;;;;;;;14.40;2.20;;;10.00;99.90;;;;;;6174213;23;20077;-88
2024/01/22 09:03:33;;;;;;;11.30;1.80;;;9.70;99.90;;;;;;6150472;23;20009;-89
2024/01/22 09:06:00;;;;;;;12.40;2.13;;;9.70;99.90;;;;;;6174182;23;20060;-89
2024/01/22 09:08:27;;;;;;;13.30;2.63;;;10.30;99.90;;;;;;6150337;23;20013;-88
2024/01/22 09:10:54;;;;;;;16.83;2.53;;;9.60;99.90;;;;;;6174713;23;20526;-86
2024/01/22 09:13:20;;;;;;;15.77;2.47;;;9.50;99.90;;;;;;6149920;23;20032;-89
2024/01/22 09:15:47;;;;;;;18.17;3.38;;;9.70;99.90;;;;;;6149597;23;20020;-88
2024/01/22 09:18:14;;;;;;;15.70;2.95;;;9.60;99.90;;;;;;6174101;23;20028;-88
2024/01/22 09:20:41;;;;;;;17.80;3.00;;;9.50;99.90;;;;;;6149685;23;20551;-88
2024/01/22 09:23:07;;;;;;;20.20;3.45;;;9.60;99.90;;;;;;6149857;23;20021;-88
2024/01/22 09:25:34;;;;;;;18.88;3.58;;;9.40;99.90;;;;;;6149546;23;20056;-87
2024/01/22 09:28:02;;;;;;;29.80;4.18;;;9.50;99.90;;;;;;6149768;23;20044;-87
2024/01/22 09:30:29;;;;;;;29.83;4.65;;;9.40;99.90;;;;;;6149964;23;20014;-88
2024/01/22 09:32:57;;;;;;;25.55;4.55;;;9.40;99.90;;;;;;6149496;23;20475;-89
2024/01/22 09:35:24;;;;;;;40.10;4.65;;;9.40;99.90;;;;;;6149971;23;20345;-88
2024/01/22 09:37:51;;;;;;;32.95;4.88;;;9.40;99.90;;;;;;6149921;23;20013;-89
2024/01/22 09:40:18;;;;;;;23.23;3.97;;;9.70;99.90;;;;;;6149981;23;20340;-89
2024/01/22 09:42:47;;;;;;;24.35;4.75;;;9.50;99.90;;;;;;6149788;23;20441;-88
2024/01/22 09:45:14;;;;;;;32.20;4.60;;;9.40;99.90;;;;;;6149558;23;20021;-89
2024/01/22 09:47:41;;;;;;;29.27;4.60;;;9.40;99.90;;;;;;6149562;23;20009;-88
2024/01/22 09:50:08;;;;;;;40.95;6.55;;;9.40;99.90;;;;;;6149876;23;20075;-89
2024/01/22 09:52:35;;;;;;;35.22;5.75;;;9.40;99.90;;;;;;6149631;23;20005;-88
2024/01/22 09:55:02;;;;;;;34.70;5.85;;;9.40;99.90;;;;;;6149680;23;20021;-89
2024/01/22 09:57:29;;;;;;;22.73;4.88;;;9.40;99.90;;;;;;6149317;23;20013;-88
2024/01/22 09:59:56;;;;;;;26.42;5.25;;;9.40;99.90;;;;;;6149732;23;20018;-88
2024/01/22 10:02:23;;;;;;;33.10;5.65;;;9.60;99.90;;;;;;6149425;23;20068;-88
2024/01/22 10:04:50;;;;;;;31.15;5.45;;;9.60;99.90;;;;;;6149503;23;20376;-88
2024/01/22 10:07:18;;;;;;;39.22;5.65;;;9.40;99.90;;;;;;6149254;23;20053;-89
2024/01/22 10:09:47;;;;;;;34.47;5.28;;;9.30;99.90;;;;;;6149117;23;20014;-89
2024/01/22 10:12:13;;;;;;;31.67;4.15;;;9.30;99.90;;;;;;6149387;23;20009;-87
2024/01/22 10:14:45;;;;;;;29.40;4.53;;;9.70;99.90;;;;;;6149168;23;20009;-88
2024/01/22 10:17:18;;;;;;;29.27;4.38;;;9.30;99.90;;;;;;6149393;23;20107;-88
2024/01/22 10:19:46;;;;;;;23.17;4.25;;;9.30;99.90;;;;;;6149317;23;20100;-88
2024/01/22 10:22:16;;;;;;;28.23;4.70;;;9.50;99.90;;;;;;6148955;23;20018;-88
2024/01/22 10:24:43;;;;;;;32.95;4.45;;;9.90;99.90;;;;;;6149594;23;20099;-88
2024/01/22 10:27:16;;;;;;;23.40;3.83;;;9.60;99.90;;;;;;6149335;23;20037;-88
2024/01/22 10:29:44;;;;;;;42.38;5.93;;;9.30;99.90;;;;;;6173571;23;20021;-88
2024/01/22 10:32:11;;;;;;;34.25;4.65;;;9.70;99.90;;;;;;6149256;23;20096;-88
2024/01/22 10:34:43;;;;;;;32.78;5.03;;;9.30;99.90;;;;;;6173545;23;20083;-88
2024/01/22 10:37:12;;;;;;;29.67;4.63;;;9.30;99.90;;;;;;6149082;23;20348;-87
2024/01/22 10:39:42;;;;;;;28.45;4.40;;;9.20;99.90;;;;;;6149050;23;20088;-86
2024/01/22 10:42:10;;;;;;;43.88;7.35;;;9.60;99.90;;;;;;6148826;23;20024;-87
2024/01/22 10:44:45;;;;;;;27.48;4.47;;;9.20;99.90;;;;;;6173617;23;20014;-88
2024/01/22 10:47:15;;;;;;;26.00;4.30;;;9.00;99.90;;;;;;6149499;23;20452;-88
2024/01/22 10:49:43;;;;;;;32.63;4.32;;;9.40;99.90;;;;;;6154044;23;20024;-88
2024/01/22 10:52:10;;;;;;;26.75;4.43;;;9.10;99.90;;;;;;6158842;23;20085;-89
2024/01/22 10:54:38;;;;;;;26.88;4.60;;;9.10;99.90;;;;;;6149696;23;20099;-88
2024/01/22 10:57:14;;;;;;;31.75;4.43;;;9.20;99.90;;;;;;6149094;23;20037;-88
2024/01/22 10:59:47;;;;;;;21.23;4.10;;;9.00;99.90;;;;;;6148888;23;20013;-88
2024/01/22 11:02:26;;;;;;;27.98;3.85;;;9.50;99.90;;;;;;6148912;23;20097;-88
2024/01/22 11:05:04;;;;;;;23.50;4.07;;;9.00;99.90;;;;;;6173324;23;20022;-88
2024/01/22 11:07:36;;;;;;;26.80;3.38;;;9.00;99.90;;;;;;6148869;23;20329;-88
2024/01/22 11:10:04;;;;;;;27.73;4.07;;;9.10;99.90;;;;;;6148657;23;20018;-87
2024/01/22 11:12:39;;;;;;;21.30;3.90;;;9.10;99.90;;;;;;6172761;23;20009;-87
2024/01/22 11:15:06;;;;;;;17.90;3.55;;;9.10;99.90;;;;;;6173039;23;20017;-88
2024/01/22 11:17:33;;;;;;;30.02;3.85;;;9.10;99.90;;;;;;6148883;23;20029;-88
2024/01/22 11:20:20;;;;;;;23.02;3.38;;;9.30;99.90;;;;;;6149083;23;20352;-88
2024/01/22 11:23:01;;;;;;;24.42;4.38;;;9.00;99.90;;;;;;6149245;23;20021;-88
2024/01/22 11:25:28;;;;;;;16.02;3.97;;;9.00;99.90;;;;;;6148199;23;20400;-88
2024/01/22 11:28:09;;;;;;;26.10;4.22;;;9.70;99.90;;;;;;6148495;23;20020;-88
2024/01/22 11:30:38;;;;;;;22.38;3.90;;;9.00;99.90;;;;;;6148494;23;20009;-88
2024/01/22 11:33:23;;;;;;;24.73;3.85;;;9.90;99.90;;;;;;6148721;23;20010;-87
2024/01/22 11:35:49;;;;;;;21.45;3.65;;;9.20;99.90;;;;;;6148634;23;20014;-88
2024/01/22 11:38:42;;;;;;;33.17;4.90;;;9.20;99.90;;;;;;6148384;23;20013;-88
2024/01/22 11:41:08;;;;;;;27.90;3.63;;;9.40;99.90;;;;;;6148395;23;20013;-88
2024/01/22 11:43:35;;;;;;;30.58;5.80;;;9.40;99.90;;;;;;6149303;23;20045;-89
2024/01/22 11:46:14;;;;;;;34.42;4.50;;;9.50;99.90;;;;;;6148639;23;20460;-88
2024/01/22 11:48:41;;;;;;;27.52;4.30;;;9.50;99.90;;;;;;6148921;23;20016;-88
2024/01/22 11:51:08;;;;;;;28.80;6.93;;;9.60;99.90;;;;;;6148530;23;20010;-88
2024/01/22 11:53:54;;;;;;;25.85;3.97;;;9.60;99.90;;;;;;6148452;23;20013;-88
2024/01/22 11:56:21;;;;;;;24.30;4.18;;;9.60;99.90;;;;;;6148391;23;20041;-88
2024/01/22 11:58:51;;;;;;;24.90;2.85;;;9.60;99.90;;;;;;6148822;23;20024;-88
2024/01/22 12:01:21;;;;;;;22.92;4.13;;;9.60;99.90;;;;;;6148503;23;20018;-88
2024/01/22 12:03:48;;;;;;;19.67;3.85;;;9.70;99.90;;;;;;6148074;23;20148;-88
2024/01/22 12:06:14;;;;;;;21.75;3.63;;;9.80;99.90;;;;;;6148490;23;20069;-88
2024/01/22 12:08:41;;;;;;;23.52;4.22;;;9.60;99.90;;;;;;6148552;23;20117;-88
2024/01/22 12:11:09;;;;;;;23.25;3.50;;;9.60;99.90;;;;;;6148295;23;20014;-87
2024/01/22 12:13:39;;;;;;;24.10;3.65;;;9.60;99.90;;;;;;6148271;23;20064;-88
2024/01/22 12:16:13;;;;;;;14.57;2.72;;;9.70;99.90;;;;;;6148316;23;20072;-88
2024/01/22 12:18:40;;;;;;;24.48;4.38;;;10.10;99.90;;;;;;6148723;23;20064;-88
2024/01/22 12:21:10;;;;;;;22.85;3.30;;;9.70;99.90;;;;;;6148437;23;20017;-88
2024/01/22 12:23:37;;;;;;;16.70;3.13;;;9.70;99.90;;;;;;6148679;23;20026;-88
2024/01/22 12:26:12;;;;;;;29.15;4.18;;;9.60;99.90;;;;;;6148271;23;20013;-88
2024/01/22 12:28:40;;;;;;;20.23;3.40;;;9.80;99.90;;;;;;6172603;23;20095;-89
2024/01/22 12:31:06;;;;;;;21.58;3.97;;;9.60;99.90;;;;;;6147736;23;20014;-86
2024/01/22 12:33:33;;;;;;;26.05;4.65;;;9.60;99.90;;;;;;6147575;23;20010;-88
2024/01/22 12:36:27;;;;;;;23.95;3.60;;;9.60;99.90;;;;;;6174408;23;20019;-89
2024/01/22 12:38:54;;;;;;;20.20;3.85;;;9.50;99.90;;;;;;6167812;23;20014;-88
2024/01/22 12:41:23;;;;;;;25.10;4.35;;;9.60;99.90;;;;;;6150079;23;20013;-88
2024/01/22 12:43:54;;;;;;;20.83;3.40;;;9.50;99.90;;;;;;6174958;23;20060;-89
2024/01/22 12:46:21;;;;;;;24.25;3.60;;;10.30;99.90;;;;;;6150255;23;20096;-89
2024/01/22 12:48:47;;;;;;;21.48;4.53;;;9.40;99.90;;;;;;6150608;23;20078;-89
2024/01/22 12:51:16;;;;;;;22.77;3.10;;;9.70;99.90;;;;;;6150326;23;20014;-89
2024/01/22 12:53:46;;;;;;;17.40;2.70;;;9.50;99.90;;;;;;6150139;23;20014;-88